sensor_id;sensor_type;location;lat;lon;timestamp;temperature;humidity
47516;DHT22;33249;51.990;5.840;2023-11-22T00:01:05;3.60;99.90
47516;DHT22;33249;51.990;5.840;2023-11-22T00:03:31;3.50;99.90
47516;DHT22;33249;51.990;5.840;2023-11-22T00:05:58;3.50;99.90
47516;DHT22;33249;51.990;5.840;2023-11-22T00:08:24;3.50;99.90
47516;DHT22;33249;51.990;5.840;2023-11-22T00:10:50;3.50;99.90
47516;DHT22;33249;51.990;5.840;2023-11-22T00:13:16;3.50;99.90
47516;DHT22;33249;51.990;5.840;2023-11-22T00:15:42;3.50;99.90
47516;DHT22;33249;51.990;5.840;2023-11-22T00:18:08;3.50;99.90
47516;DHT22;33249;51.990;5.840;2023-11-22T00:20:35;3.50;99.90
47516;DHT22;33249;51.990;5.840;2023-11-22T00:23:01;3.50;99.90
47516;DHT22;33249;51.990;5.840;2023-11-22T00:25:29;3.50;99.90
47516;DHT22;33249;51.990;5.840;2023-11-22T00:27:55;3.50;99.90
47516;DHT22;33249;51.990;5.840;2023-11-22T00:30:22;3.40;99.90
47516;DHT22;33249;51.990;5.840;2023-11-22T00:32:49;3.40;99.90
47516;DHT22;33249;51.990;5.840;2023-11-22T00:35:15;3.40;99.90
47516;DHT22;33249;51.990;5.840;2023-11-22T00:37:41;3.40;99.90
47516;DHT22;33249;51.990;5.840;2023-11-22T00:40:07;3.40;99.90
47516;DHT22;33249;51.990;5.840;2023-11-22T00:42:37;3.40;99.90
47516;DHT22;33249;51.990;5.840;2023-11-22T00:45:06;3.40;99.90
47516;DHT22;33249;51.990;5.840;2023-11-22T00:47:33;3.40;99.90
47516;DHT22;33249;51.990;5.840;2023-11-22T00:49:59;3.40;99.90
47516;DHT22;33249;51.990;5.840;2023-11-22T00:52:25;3.40;99.90
47516;DHT22;33249;51.990;5.840;2023-11-22T00:54:52;3.30;99.90
47516;DHT22;33249;51.990;5.840;2023-11-22T00:57:19;3.30;99.90
47516;DHT22;33249;51.990;5.840;2023-11-22T00:59:45;3.30;99.90
47516;DHT22;33249;51.990;5.840;2023-11-22T01:02:11;3.30;99.90
47516;DHT22;33249;51.990;5.840;2023-11-22T01:04:37;3.30;99.90
47516;DHT22;33249;51.990;5.840;2023-11-22T01:07:04;3.20;99.90
47516;DHT22;33249;51.990;5.840;2023-11-22T01:09:31;3.40;99.90
47516;DHT22;33249;51.990;5.840;2023-11-22T01:11:58;3.30;99.90
47516;DHT22;33249;51.990;5.840;2023-11-22T01:14:24;3.30;99.90
47516;DHT22;33249;51.990;5.840;2023-11-22T01:16:52;3.30;99.90
47516;DHT22;33249;51.990;5.840;2023-11-22T01:19:18;3.20;99.90
47516;DHT22;33249;51.990;5.840;2023-11-22T01:21:44;3.20;99.90
47516;DHT22;33249;51.990;5.840;2023-11-22T01:24:10;3.20;99.90
47516;DHT22;33249;51.990;5.840;2023-11-22T01:26:37;3.20;99.90
47516;DHT22;33249;51.990;5.840;2023-11-22T01:29:04;3.20;99.90
47516;DHT22;33249;51.990;5.840;2023-11-22T01:31:31;3.10;99.90
47516;DHT22;33249;51.990;5.840;2023-11-22T01:34:00;3.20;99.90
47516;DHT22;33249;51.990;5.840;2023-11-22T01:36:27;3.10;99.90
47516;DHT22;33249;51.990;5.840;2023-11-22T01:38:54;3.10;99.90
47516;DHT22;33249;51.990;5.840;2023-11-22T01:41:21;3.10;99.90
47516;DHT22;33249;51.990;5.840;2023-11-22T01:43:48;3.10;99.90
47516;DHT22;33249;51.990;5.840;2023-11-22T01:46:24;3.10;99.90
47516;DHT22;33249;51.990;5.840;2023-11-22T01:48:52;3.00;99.90
47516;DHT22;33249;51.990;5.840;2023-11-22T01:51:20;3.10;99.90
47516;DHT22;33249;51.990;5.840;2023-11-22T01:53:47;3.00;99.90
47516;DHT22;33249;51.990;5.840;2023-11-22T01:56:15;3.00;99.90
47516;DHT22;33249;51.990;5.840;2023-11-22T01:58:43;2.90;99.90
47516;DHT22;33249;51.990;5.840;2023-11-22T02:01:09;3.00;99.90
47516;DHT22;33249;51.990;5.840;2023-11-22T02:03:38;2.90;99.90
47516;DHT22;33249;51.990;5.840;2023-11-22T02:06:05;2.90;99.90
47516;DHT22;33249;51.990;5.840;2023-11-22T02:08:31;2.90;99.90
47516;DHT22;33249;51.990;5.840;2023-11-22T02:11:02;2.90;99.90
47516;DHT22;33249;51.990;5.840;2023-11-22T02:13:31;2.80;99.90
47516;DHT22;33249;51.990;5.840;2023-11-22T02:15:57;2.90;99.90
47516;DHT22;33249;51.990;5.840;2023-11-22T02:18:26;2.80;99.90
47516;DHT22;33249;51.990;5.840;2023-11-22T02:20:52;2.80;99.90
47516;DHT22;33249;51.990;5.840;2023-11-22T02:23:18;2.80;99.90
47516;DHT22;33249;51.990;5.840;2023-11-22T02:25:46;2.80;99.90
47516;DHT22;33249;51.990;5.840;2023-11-22T02:28:12;2.70;99.90
47516;DHT22;33249;51.990;5.840;2023-11-22T02:30:38;2.60;99.90
47516;DHT22;33249;51.990;5.840;2023-11-22T02:33:04;2.70;99.90
47516;DHT22;33249;51.990;5.840;2023-11-22T02:35:31;2.60;99.90
47516;DHT22;33249;51.990;5.840;2023-11-22T02:37:58;2.60;99.90
47516;DHT22;33249;51.990;5.840;2023-11-22T02:40:25;2.60;99.90
47516;DHT22;33249;51.990;5.840;2023-11-22T02:42:53;2.50;99.90
47516;DHT22;33249;51.990;5.840;2023-11-22T02:45:22;2.50;99.90
47516;DHT22;33249;51.990;5.840;2023-11-22T02:47:49;2.50;99.90
47516;DHT22;33249;51.990;5.840;2023-11-22T02:50:16;2.50;99.90
47516;DHT22;33249;51.990;5.840;2023-11-22T02:52:42;2.40;99.90
47516;DHT22;33249;51.990;5.840;2023-11-22T02:55:09;2.40;99.90
47516;DHT22;33249;51.990;5.840;2023-11-22T02:57:36;2.30;99.90
47516;DHT22;33249;51.990;5.840;2023-11-22T03:00:04;2.30;99.90
47516;DHT22;33249;51.990;5.840;2023-11-22T03:02:30;2.30;99.90
47516;DHT22;33249;51.990;5.840;2023-11-22T03:04:58;2.10;99.90
47516;DHT22;33249;51.990;5.840;2023-11-22T03:07:26;2.20;99.90
47516;DHT22;33249;51.990;5.840;2023-11-22T03:09:52;2.20;99.90
47516;DHT22;33249;51.990;5.840;2023-11-22T03:12:19;2.10;99.90
47516;DHT22;33249;51.990;5.840;2023-11-22T03:14:49;2.10;99.90
47516;DHT22;33249;51.990;5.840;2023-11-22T03:17:15;2.10;99.90
47516;DHT22;33249;51.990;5.840;2023-11-22T03:19:41;2.10;99.90
47516;DHT22;33249;51.990;5.840;2023-11-22T03:22:08;2.00;99.90
47516;DHT22;33249;51.990;5.840;2023-11-22T03:24:34;2.00;99.90
47516;DHT22;33249;51.990;5.840;2023-11-22T03:27:03;2.00;99.90
47516;DHT22;33249;51.990;5.840;2023-11-22T03:29:29;2.10;99.90
47516;DHT22;33249;51.990;5.840;2023-11-22T03:31:55;2.10;99.90
47516;DHT22;33249;51.990;5.840;2023-11-22T03:34:21;2.00;99.90
47516;DHT22;33249;51.990;5.840;2023-11-22T03:36:48;2.00;99.90
47516;DHT22;33249;51.990;5.840;2023-11-22T03:39:18;2.00;99.90
47516;DHT22;33249;51.990;5.840;2023-11-22T03:41:44;2.00;99.90
47516;DHT22;33249;51.990;5.840;2023-11-22T03:44:10;1.90;99.90
47516;DHT22;33249;51.990;5.840;2023-11-22T03:46:39;2.00;99.90
47516;DHT22;33249;51.990;5.840;2023-11-22T03:49:07;2.00;99.90
47516;DHT22;33249;51.990;5.840;2023-11-22T03:51:34;2.00;99.90
47516;DHT22;33249;51.990;5.840;2023-11-22T03:54:02;1.90;99.90
47516;DHT22;33249;51.990;5.840;2023-11-22T03:56:29;2.00;99.90
47516;DHT22;33249;51.990;5.840;2023-11-22T03:58:56;2.00;99.90
47516;DHT22;33249;51.990;5.840;2023-11-22T04:01:22;2.00;99.90
47516;DHT22;33249;51.990;5.840;2023-11-22T04:03:48;2.00;99.90
47516;DHT22;33249;51.990;5.840;2023-11-22T04:06:15;2.00;99.90
47516;DHT22;33249;51.990;5.840;2023-11-22T04:08:43;2.00;99.90
47516;DHT22;33249;51.990;5.840;2023-11-22T04:11:13;2.00;99.90
47516;DHT22;33249;51.990;5.840;2023-11-22T04:13:39;1.90;99.90
47516;DHT22;33249;51.990;5.840;2023-11-22T04:16:06;1.90;99.90
47516;DHT22;33249;51.990;5.840;2023-11-22T04:18:35;2.00;99.90
47516;DHT22;33249;51.990;5.840;2023-11-22T04:21:02;2.00;99.90
47516;DHT22;33249;51.990;5.840;2023-11-22T04:23:33;2.00;99.90
47516;DHT22;33249;51.990;5.840;2023-11-22T04:26:00;1.90;99.90
47516;DHT22;33249;51.990;5.840;2023-11-22T04:28:28;2.00;99.90
47516;DHT22;33249;51.990;5.840;2023-11-22T04:30:56;1.90;99.90
47516;DHT22;33249;51.990;5.840;2023-11-22T04:33:23;1.90;99.90
47516;DHT22;33249;51.990;5.840;2023-11-22T04:35:50;1.90;99.90
47516;DHT22;33249;51.990;5.840;2023-11-22T04:38:17;1.90;99.90
47516;DHT22;33249;51.990;5.840;2023-11-22T04:40:44;1.90;99.90
47516;DHT22;33249;51.990;5.840;2023-11-22T04:43:10;1.90;99.90
47516;DHT22;33249;51.990;5.840;2023-11-22T04:45:37;1.90;99.90
47516;DHT22;33249;51.990;5.840;2023-11-22T04:48:04;1.90;99.90
47516;DHT22;33249;51.990;5.840;2023-11-22T04:50:30;1.90;99.90
47516;DHT22;33249;51.990;5.840;2023-11-22T04:52:56;1.90;99.90
47516;DHT22;33249;51.990;5.840;2023-11-22T04:55:22;1.90;99.90
47516;DHT22;33249;51.990;5.840;2023-11-22T04:57:51;1.80;99.90
47516;DHT22;33249;51.990;5.840;2023-11-22T05:00:18;1.60;99.90
47516;DHT22;33249;51.990;5.840;2023-11-22T05:02:45;1.70;99.90
47516;DHT22;33249;51.990;5.840;2023-11-22T05:05:11;1.70;99.90
47516;DHT22;33249;51.990;5.840;2023-11-22T05:07:38;1.60;99.90
47516;DHT22;33249;51.990;5.840;2023-11-22T05:10:05;1.60;99.90
47516;DHT22;33249;51.990;5.840;2023-11-22T05:12:31;1.50;99.90
47516;DHT22;33249;51.990;5.840;2023-11-22T05:14:58;1.50;99.90
47516;DHT22;33249;51.990;5.840;2023-11-22T05:17:24;1.30;99.90
47516;DHT22;33249;51.990;5.840;2023-11-22T05:19:51;1.20;99.90
47516;DHT22;33249;51.990;5.840;2023-11-22T05:22:17;1.20;99.90
47516;DHT22;33249;51.990;5.840;2023-11-22T05:24:43;1.20;99.90
47516;DHT22;33249;51.990;5.840;2023-11-22T05:27:10;1.20;99.90
47516;DHT22;33249;51.990;5.840;2023-11-22T05:29:36;1.10;99.90
47516;DHT22;33249;51.990;5.840;2023-11-22T05:32:02;1.20;99.90
47516;DHT22;33249;51.990;5.840;2023-11-22T05:34:29;1.30;99.90
47516;DHT22;33249;51.990;5.840;2023-11-22T05:36:55;1.40;99.90
47516;DHT22;33249;51.990;5.840;2023-11-22T05:39:21;1.40;99.90
47516;DHT22;33249;51.990;5.840;2023-11-22T05:41:52;1.50;99.90
47516;DHT22;33249;51.990;5.840;2023-11-22T05:44:18;1.60;99.90
47516;DHT22;33249;51.990;5.840;2023-11-22T05:46:44;1.50;99.90
47516;DHT22;33249;51.990;5.840;2023-11-22T05:49:10;1.50;99.90
47516;DHT22;33249;51.990;5.840;2023-11-22T05:51:37;1.60;99.90
47516;DHT22;33249;51.990;5.840;2023-11-22T05:54:04;1.60;99.90
47516;DHT22;33249;51.990;5.840;2023-11-22T05:56:30;1.60;99.90
47516;DHT22;33249;51.990;5.840;2023-11-22T05:58:57;1.60;99.90
47516;DHT22;33249;51.990;5.840;2023-11-22T06:01:23;1.60;99.90
47516;DHT22;33249;51.990;5.840;2023-11-22T06:03:49;1.50;99.90
47516;DHT22;33249;51.990;5.840;2023-11-22T06:06:15;1.50;99.90
47516;DHT22;33249;51.990;5.840;2023-11-22T06:08:41;1.60;99.90
47516;DHT22;33249;51.990;5.840;2023-11-22T06:11:08;1.60;99.90
47516;DHT22;33249;51.990;5.840;2023-11-22T06:13:34;1.50;99.90
47516;DHT22;33249;51.990;5.840;2023-11-22T06:16:00;1.50;99.90
47516;DHT22;33249;51.990;5.840;2023-11-22T06:18:26;1.60;99.90
47516;DHT22;33249;51.990;5.840;2023-11-22T06:20:56;1.60;99.90
47516;DHT22;33249;51.990;5.840;2023-11-22T06:23:22;1.70;99.90
47516;DHT22;33249;51.990;5.840;2023-11-22T06:25:49;1.80;99.90
47516;DHT22;33249;51.990;5.840;2023-11-22T06:28:15;1.70;99.90
47516;DHT22;33249;51.990;5.840;2023-11-22T06:30:41;1.60;99.90
47516;DHT22;33249;51.990;5.840;2023-11-22T06:33:08;1.70;99.90
47516;DHT22;33249;51.990;5.840;2023-11-22T06:35:34;1.70;99.90
47516;DHT22;33249;51.990;5.840;2023-11-22T06:38:00;1.90;99.90
47516;DHT22;33249;51.990;5.840;2023-11-22T06:40:26;1.90;99.90
47516;DHT22;33249;51.990;5.840;2023-11-22T06:42:52;1.90;99.90
47516;DHT22;33249;51.990;5.840;2023-11-22T06:45:18;1.80;99.90
47516;DHT22;33249;51.990;5.840;2023-11-22T06:47:45;1.70;99.90
47516;DHT22;33249;51.990;5.840;2023-11-22T06:50:11;1.80;99.90
47516;DHT22;33249;51.990;5.840;2023-11-22T06:52:39;1.80;99.90
47516;DHT22;33249;51.990;5.840;2023-11-22T06:55:06;1.80;99.90
47516;DHT22;33249;51.990;5.840;2023-11-22T06:57:35;1.80;99.90
47516;DHT22;33249;51.990;5.840;2023-11-22T07:00:03;1.80;99.90
47516;DHT22;33249;51.990;5.840;2023-11-22T07:02:34;1.80;99.90
47516;DHT22;33249;51.990;5.840;2023-11-22T07:05:03;1.70;99.90
47516;DHT22;33249;51.990;5.840;2023-11-22T07:07:34;1.70;99.90
47516;DHT22;33249;51.990;5.840;2023-11-22T07:10:00;1.80;99.90
47516;DHT22;33249;51.990;5.840;2023-11-22T07:12:26;1.80;99.90
47516;DHT22;33249;51.990;5.840;2023-11-22T07:14:53;1.80;99.90
47516;DHT22;33249;51.990;5.840;2023-11-22T07:17:19;1.90;99.90
47516;DHT22;33249;51.990;5.840;2023-11-22T07:19:45;2.00;99.90
47516;DHT22;33249;51.990;5.840;2023-11-22T07:22:15;2.10;99.90
47516;DHT22;33249;51.990;5.840;2023-11-22T07:24:49;2.20;99.90
47516;DHT22;33249;51.990;5.840;2023-11-22T07:27:18;2.40;99.90
47516;DHT22;33249;51.990;5.840;2023-11-22T07:29:45;2.40;99.90
47516;DHT22;33249;51.990;5.840;2023-11-22T07:32:14;2.50;99.90
47516;DHT22;33249;51.990;5.840;2023-11-22T07:34:41;2.50;99.90
47516;DHT22;33249;51.990;5.840;2023-11-22T07:37:08;2.60;99.90
47516;DHT22;33249;51.990;5.840;2023-11-22T07:39:37;2.60;99.90
47516;DHT22;33249;51.990;5.840;2023-11-22T07:42:04;2.70;99.90
47516;DHT22;33249;51.990;5.840;2023-11-22T07:44:34;2.70;99.90
47516;DHT22;33249;51.990;5.840;2023-11-22T07:47:02;2.80;99.90
47516;DHT22;33249;51.990;5.840;2023-11-22T07:49:28;2.80;99.90
47516;DHT22;33249;51.990;5.840;2023-11-22T07:51:55;2.90;99.90
47516;DHT22;33249;51.990;5.840;2023-11-22T07:54:22;3.00;99.90
47516;DHT22;33249;51.990;5.840;2023-11-22T07:56:49;3.10;99.90
47516;DHT22;33249;51.990;5.840;2023-11-22T07:59:15;3.10;99.90
47516;DHT22;33249;51.990;5.840;2023-11-22T08:01:45;3.20;99.90
47516;DHT22;33249;51.990;5.840;2023-11-22T08:04:11;3.10;99.90
47516;DHT22;33249;51.990;5.840;2023-11-22T08:06:37;3.30;99.90
47516;DHT22;33249;51.990;5.840;2023-11-22T08:09:05;3.30;99.90
47516;DHT22;33249;51.990;5.840;2023-11-22T08:11:34;3.50;99.90
47516;DHT22;33249;51.990;5.840;2023-11-22T08:14:02;3.40;99.90
47516;DHT22;33249;51.990;5.840;2023-11-22T08:16:29;3.50;99.90
47516;DHT22;33249;51.990;5.840;2023-11-22T08:18:56;3.50;99.90
47516;DHT22;33249;51.990;5.840;2023-11-22T08:21:23;3.40;99.90
47516;DHT22;33249;51.990;5.840;2023-11-22T08:23:49;3.50;99.90
47516;DHT22;33249;51.990;5.840;2023-11-22T08:26:16;3.70;99.90
47516;DHT22;33249;51.990;5.840;2023-11-22T08:28:42;3.70;99.90
47516;DHT22;33249;51.990;5.840;2023-11-22T08:31:08;3.70;99.90
47516;DHT22;33249;51.990;5.840;2023-11-22T08:33:38;3.80;99.90
47516;DHT22;33249;51.990;5.840;2023-11-22T08:36:06;3.80;99.90
47516;DHT22;33249;51.990;5.840;2023-11-22T08:38:32;3.80;99.90
47516;DHT22;33249;51.990;5.840;2023-11-22T08:41:04;3.70;99.90
47516;DHT22;33249;51.990;5.840;2023-11-22T08:43:34;3.80;99.90
47516;DHT22;33249;51.990;5.840;2023-11-22T08:46:02;3.90;99.90
47516;DHT22;33249;51.990;5.840;2023-11-22T08:48:33;3.90;99.90
47516;DHT22;33249;51.990;5.840;2023-11-22T08:51:00;3.90;99.90
47516;DHT22;33249;51.990;5.840;2023-11-22T08:53:27;3.90;99.90
47516;DHT22;33249;51.990;5.840;2023-11-22T08:55:53;3.90;99.90
47516;DHT22;33249;51.990;5.840;2023-11-22T08:58:20;3.90;99.90
47516;DHT22;33249;51.990;5.840;2023-11-22T09:00:47;4.10;99.90
47516;DHT22;33249;51.990;5.840;2023-11-22T09:03:13;4.00;99.90
47516;DHT22;33249;51.990;5.840;2023-11-22T09:05:39;4.00;99.90
47516;DHT22;33249;51.990;5.840;2023-11-22T09:08:06;4.10;99.90
47516;DHT22;33249;51.990;5.840;2023-11-22T09:10:32;4.10;99.90
47516;DHT22;33249;51.990;5.840;2023-11-22T09:12:58;4.00;99.90
47516;DHT22;33249;51.990;5.840;2023-11-22T09:15:27;4.10;99.90
47516;DHT22;33249;51.990;5.840;2023-11-22T09:17:55;4.10;99.90
47516;DHT22;33249;51.990;5.840;2023-11-22T09:20:22;4.10;99.90
47516;DHT22;33249;51.990;5.840;2023-11-22T09:22:51;4.10;99.90
47516;DHT22;33249;51.990;5.840;2023-11-22T09:25:22;4.20;99.90
47516;DHT22;33249;51.990;5.840;2023-11-22T09:27:50;4.20;99.90
47516;DHT22;33249;51.990;5.840;2023-11-22T09:30:29;4.10;99.90
47516;DHT22;33249;51.990;5.840;2023-11-22T09:32:59;4.10;99.90
47516;DHT22;33249;51.990;5.840;2023-11-22T09:35:25;4.20;99.90
47516;DHT22;33249;51.990;5.840;2023-11-22T09:37:52;4.30;99.90
47516;DHT22;33249;51.990;5.840;2023-11-22T09:40:18;4.30;99.90
47516;DHT22;33249;51.990;5.840;2023-11-22T09:42:45;4.30;99.90
47516;DHT22;33249;51.990;5.840;2023-11-22T09:45:18;4.30;99.90
47516;DHT22;33249;51.990;5.840;2023-11-22T09:47:44;4.30;99.90
47516;DHT22;33249;51.990;5.840;2023-11-22T09:53:02;4.30;99.90
47516;DHT22;33249;51.990;5.840;2023-11-22T09:55:31;4.40;99.90
47516;DHT22;33249;51.990;5.840;2023-11-22T09:58:01;4.40;99.90
47516;DHT22;33249;51.990;5.840;2023-11-22T10:00:29;4.60;99.90
47516;DHT22;33249;51.990;5.840;2023-11-22T10:02:59;4.60;99.90
47516;DHT22;33249;51.990;5.840;2023-11-22T10:05:25;4.70;99.90
47516;DHT22;33249;51.990;5.840;2023-11-22T10:07:54;4.50;99.90
47516;DHT22;33249;51.990;5.840;2023-11-22T10:10:21;4.60;99.90
47516;DHT22;33249;51.990;5.840;2023-11-22T10:12:55;4.60;99.90
47516;DHT22;33249;51.990;5.840;2023-11-22T10:15:27;4.60;99.90
47516;DHT22;33249;51.990;5.840;2023-11-22T10:17:59;4.60;99.90
47516;DHT22;33249;51.990;5.840;2023-11-22T10:20:37;4.70;99.90
47516;DHT22;33249;51.990;5.840;2023-11-22T10:23:03;4.60;99.90
47516;DHT22;33249;51.990;5.840;2023-11-22T10:25:37;4.60;99.90
47516;DHT22;33249;51.990;5.840;2023-11-22T10:28:03;4.70;99.90
47516;DHT22;33249;51.990;5.840;2023-11-22T10:30:34;4.70;99.90
47516;DHT22;33249;51.990;5.840;2023-11-22T10:33:02;4.70;99.90
47516;DHT22;33249;51.990;5.840;2023-11-22T10:35:29;4.80;99.90
47516;DHT22;33249;51.990;5.840;2023-11-22T10:37:56;4.80;99.90
47516;DHT22;33249;51.990;5.840;2023-11-22T10:40:22;5.00;99.90
47516;DHT22;33249;51.990;5.840;2023-11-22T10:42:51;5.00;99.90
47516;DHT22;33249;51.990;5.840;2023-11-22T10:45:20;5.00;99.90
47516;DHT22;33249;51.990;5.840;2023-11-22T10:47:49;5.20;99.90
47516;DHT22;33249;51.990;5.840;2023-11-22T10:50:15;5.10;99.90
47516;DHT22;33249;51.990;5.840;2023-11-22T10:52:45;5.20;99.90
47516;DHT22;33249;51.990;5.840;2023-11-22T10:55:15;5.30;99.90
47516;DHT22;33249;51.990;5.840;2023-11-22T10:57:45;5.20;99.90
47516;DHT22;33249;51.990;5.840;2023-11-22T11:00:15;5.30;99.90
47516;DHT22;33249;51.990;5.840;2023-11-22T11:02:45;5.20;99.90
47516;DHT22;33249;51.990;5.840;2023-11-22T11:05:22;5.10;99.90
47516;DHT22;33249;51.990;5.840;2023-11-22T11:08:09;5.10;99.90
47516;DHT22;33249;51.990;5.840;2023-11-22T11:10:44;5.20;99.90
47516;DHT22;33249;51.990;5.840;2023-11-22T11:13:13;5.30;99.90
47516;DHT22;33249;51.990;5.840;2023-11-22T11:15:41;5.40;99.90
47516;DHT22;33249;51.990;5.840;2023-11-22T11:18:12;5.40;99.90
47516;DHT22;33249;51.990;5.840;2023-11-22T11:20:50;5.40;99.90
47516;DHT22;33249;51.990;5.840;2023-11-22T11:23:19;5.30;99.90
47516;DHT22;33249;51.990;5.840;2023-11-22T11:25:57;5.30;99.90
47516;DHT22;33249;51.990;5.840;2023-11-22T11:28:26;5.40;99.90
47516;DHT22;33249;51.990;5.840;2023-11-22T11:30:54;5.40;99.90
47516;DHT22;33249;51.990;5.840;2023-11-22T11:33:28;5.40;99.90
47516;DHT22;33249;51.990;5.840;2023-11-22T11:35:58;5.40;99.90
47516;DHT22;33249;51.990;5.840;2023-11-22T11:38:35;5.50;99.90
47516;DHT22;33249;51.990;5.840;2023-11-22T11:41:12;5.50;99.90
47516;DHT22;33249;51.990;5.840;2023-11-22T11:43:43;5.50;99.90
47516;DHT22;33249;51.990;5.840;2023-11-22T11:46:10;5.30;99.90
47516;DHT22;33249;51.990;5.840;2023-11-22T11:48:37;5.30;99.90
47516;DHT22;33249;51.990;5.840;2023-11-22T11:51:03;5.30;99.90
47516;DHT22;33249;51.990;5.840;2023-11-22T11:53:29;5.20;99.90
47516;DHT22;33249;51.990;5.840;2023-11-22T11:55:57;5.20;99.90
47516;DHT22;33249;51.990;5.840;2023-11-22T11:58:24;5.20;99.90
47516;DHT22;33249;51.990;5.840;2023-11-22T12:00:54;5.20;99.90
47516;DHT22;33249;51.990;5.840;2023-11-22T12:03:21;5.20;99.90
47516;DHT22;33249;51.990;5.840;2023-11-22T12:05:47;5.20;99.90
47516;DHT22;33249;51.990;5.840;2023-11-22T12:08:16;5.30;99.90
47516;DHT22;33249;51.990;5.840;2023-11-22T12:10:43;5.30;99.90
47516;DHT22;33249;51.990;5.840;2023-11-22T12:13:09;5.20;99.90
47516;DHT22;33249;51.990;5.840;2023-11-22T12:15:36;5.20;99.90
47516;DHT22;33249;51.990;5.840;2023-11-22T12:18:02;5.10;99.90
47516;DHT22;33249;51.990;5.840;2023-11-22T12:20:28;5.20;99.90
47516;DHT22;33249;51.990;5.840;2023-11-22T12:22:58;5.20;99.90
47516;DHT22;33249;51.990;5.840;2023-11-22T12:25:27;5.30;99.90
47516;DHT22;33249;51.990;5.840;2023-11-22T12:27:57;5.20;99.90
47516;DHT22;33249;51.990;5.840;2023-11-22T12:30:35;5.30;99.90
47516;DHT22;33249;51.990;5.840;2023-11-22T12:33:06;5.40;99.90
47516;DHT22;33249;51.990;5.840;2023-11-22T12:35:36;5.30;99.90
47516;DHT22;33249;51.990;5.840;2023-11-22T12:38:05;5.30;99.90
47516;DHT22;33249;51.990;5.840;2023-11-22T12:40:35;5.40;99.90
47516;DHT22;33249;51.990;5.840;2023-11-22T12:43:02;5.40;99.90
47516;DHT22;33249;51.990;5.840;2023-11-22T12:45:30;5.40;99.90
47516;DHT22;33249;51.990;5.840;2023-11-22T12:47:58;5.40;99.90
47516;DHT22;33249;51.990;5.840;2023-11-22T12:50:35;5.30;99.90
47516;DHT22;33249;51.990;5.840;2023-11-22T12:53:14;5.30;99.90
47516;DHT22;33249;51.990;5.840;2023-11-22T12:55:44;5.40;99.90
47516;DHT22;33249;51.990;5.840;2023-11-22T12:58:12;5.40;99.90
47516;DHT22;33249;51.990;5.840;2023-11-22T13:00:39;5.60;99.90
47516;DHT22;33249;51.990;5.840;2023-11-22T13:03:08;5.60;99.90
47516;DHT22;33249;51.990;5.840;2023-11-22T13:05:42;5.70;99.90
47516;DHT22;33249;51.990;5.840;2023-11-22T13:08:09;5.60;99.90
47516;DHT22;33249;51.990;5.840;2023-11-22T13:10:40;5.60;99.90
47516;DHT22;33249;51.990;5.840;2023-11-22T13:13:08;5.50;99.90
47516;DHT22;33249;51.990;5.840;2023-11-22T13:15:35;5.50;99.90
47516;DHT22;33249;51.990;5.840;2023-11-22T13:18:01;5.50;99.90
47516;DHT22;33249;51.990;5.840;2023-11-22T13:20:27;5.40;99.90
47516;DHT22;33249;51.990;5.840;2023-11-22T13:22:54;5.40;99.90
47516;DHT22;33249;51.990;5.840;2023-11-22T13:25:22;5.50;99.90
47516;DHT22;33249;51.990;5.840;2023-11-22T13:27:50;5.30;99.90
47516;DHT22;33249;51.990;5.840;2023-11-22T13:30:20;5.40;99.90
47516;DHT22;33249;51.990;5.840;2023-11-22T13:33:00;5.40;99.90
47516;DHT22;33249;51.990;5.840;2023-11-22T13:35:27;5.40;99.90
47516;DHT22;33249;51.990;5.840;2023-11-22T13:37:58;5.30;99.90
47516;DHT22;33249;51.990;5.840;2023-11-22T13:40:27;5.30;99.90
47516;DHT22;33249;51.990;5.840;2023-11-22T13:42:56;5.30;99.90
47516;DHT22;33249;51.990;5.840;2023-11-22T13:45:25;5.40;99.90
47516;DHT22;33249;51.990;5.840;2023-11-22T13:47:55;5.40;99.90
47516;DHT22;33249;51.990;5.840;2023-11-22T13:50:27;5.40;99.90
47516;DHT22;33249;51.990;5.840;2023-11-22T13:52:55;5.40;99.90
47516;DHT22;33249;51.990;5.840;2023-11-22T13:55:22;5.40;99.90
47516;DHT22;33249;51.990;5.840;2023-11-22T13:57:54;5.40;99.90
47516;DHT22;33249;51.990;5.840;2023-11-22T14:00:23;5.40;99.90
47516;DHT22;33249;51.990;5.840;2023-11-22T14:02:52;5.40;99.90
47516;DHT22;33249;51.990;5.840;2023-11-22T14:05:27;5.40;99.90
47516;DHT22;33249;51.990;5.840;2023-11-22T14:07:53;5.40;99.90
47516;DHT22;33249;51.990;5.840;2023-11-22T14:10:21;5.40;99.90
47516;DHT22;33249;51.990;5.840;2023-11-22T14:12:51;5.40;99.90
47516;DHT22;33249;51.990;5.840;2023-11-22T14:15:18;5.30;99.90
47516;DHT22;33249;51.990;5.840;2023-11-22T14:17:47;5.30;99.90
47516;DHT22;33249;51.990;5.840;2023-11-22T14:20:16;5.30;99.90
47516;DHT22;33249;51.990;5.840;2023-11-22T14:22:43;5.30;99.90
47516;DHT22;33249;51.990;5.840;2023-11-22T14:25:10;5.30;99.90
47516;DHT22;33249;51.990;5.840;2023-11-22T14:27:40;5.30;99.90
47516;DHT22;33249;51.990;5.840;2023-11-22T14:30:07;5.30;99.90
47516;DHT22;33249;51.990;5.840;2023-11-22T14:32:34;5.40;99.90
47516;DHT22;33249;51.990;5.840;2023-11-22T14:35:05;5.40;99.90
47516;DHT22;33249;51.990;5.840;2023-11-22T14:37:33;5.40;99.90
47516;DHT22;33249;51.990;5.840;2023-11-22T14:40:12;5.40;99.90
47516;DHT22;33249;51.990;5.840;2023-11-22T14:42:43;5.40;99.90
47516;DHT22;33249;51.990;5.840;2023-11-22T14:45:12;5.40;99.90
47516;DHT22;33249;51.990;5.840;2023-11-22T14:47:39;5.40;99.90
47516;DHT22;33249;51.990;5.840;2023-11-22T14:50:07;5.40;99.90
47516;DHT22;33249;51.990;5.840;2023-11-22T14:52:36;5.30;99.90
47516;DHT22;33249;51.990;5.840;2023-11-22T14:55:02;5.40;99.90
47516;DHT22;33249;51.990;5.840;2023-11-22T14:57:31;5.40;99.90
47516;DHT22;33249;51.990;5.840;2023-11-22T14:59:57;5.40;99.90
47516;DHT22;33249;51.990;5.840;2023-11-22T15:02:24;5.30;99.90
47516;DHT22;33249;51.990;5.840;2023-11-22T15:04:52;5.30;99.90
47516;DHT22;33249;51.990;5.840;2023-11-22T15:07:18;5.30;99.90
47516;DHT22;33249;51.990;5.840;2023-11-22T15:09:45;5.30;99.90
47516;DHT22;33249;51.990;5.840;2023-11-22T15:12:13;5.30;99.90
47516;DHT22;33249;51.990;5.840;2023-11-22T15:14:39;5.30;99.90
47516;DHT22;33249;51.990;5.840;2023-11-22T15:17:05;5.30;99.90
47516;DHT22;33249;51.990;5.840;2023-11-22T15:19:32;5.30;99.90
47516;DHT22;33249;51.990;5.840;2023-11-22T15:21:58;5.30;99.90
47516;DHT22;33249;51.990;5.840;2023-11-22T15:24:25;5.40;99.90
47516;DHT22;33249;51.990;5.840;2023-11-22T15:26:52;5.30;99.90
47516;DHT22;33249;51.990;5.840;2023-11-22T15:29:18;5.30;99.90
47516;DHT22;33249;51.990;5.840;2023-11-22T15:31:44;5.30;99.90
47516;DHT22;33249;51.990;5.840;2023-11-22T15:34:10;5.30;99.90
47516;DHT22;33249;51.990;5.840;2023-11-22T15:36:37;5.20;99.90
47516;DHT22;33249;51.990;5.840;2023-11-22T15:39:03;5.30;99.90
47516;DHT22;33249;51.990;5.840;2023-11-22T15:41:31;5.20;99.90
47516;DHT22;33249;51.990;5.840;2023-11-22T15:43:58;5.10;99.90
47516;DHT22;33249;51.990;5.840;2023-11-22T15:46:24;5.00;99.90
47516;DHT22;33249;51.990;5.840;2023-11-22T15:48:50;4.90;99.90
47516;DHT22;33249;51.990;5.840;2023-11-22T15:51:17;4.80;99.90